createdAt,value
2018-06-24T00:01:10.623Z,2.33
2018-06-24T00:03:15.971Z,2.50
2018-06-24T00:05:21.375Z,2.13
2018-06-24T00:07:26.817Z,3.10
2018-06-24T00:09:32.150Z,2.60
2018-06-24T00:11:37.585Z,2.30
2018-06-24T00:13:43.028Z,2.30
2018-06-24T00:15:48.359Z,2.10
2018-06-24T00:17:53.878Z,2.40
2018-06-24T00:19:59.555Z,2.30
2018-06-24T00:22:04.946Z,2.30
2018-06-24T00:24:10.429Z,2.77
2018-06-24T00:26:15.699Z,1.90
2018-06-24T00:28:20.996Z,2.53
2018-06-24T00:30:26.417Z,1.93
2018-06-24T00:32:32.468Z,2.12
2018-06-24T00:34:37.775Z,2.40
2018-06-24T00:36:43.005Z,2.10
2018-06-24T00:38:48.719Z,2.50
2018-06-24T00:40:54.334Z,2.40
2018-06-24T00:42:59.841Z,2.40
2018-06-24T00:45:05.248Z,2.30
2018-06-24T00:47:10.895Z,2.50
2018-06-24T00:49:16.290Z,2.30
2018-06-24T00:51:21.680Z,2.37
2018-06-24T00:53:27.379Z,2.13
2018-06-24T00:55:32.792Z,2.37
2018-06-24T00:57:38.133Z,2.58
2018-06-24T01:00:00.100Z,2.40
2018-06-24T01:02:05.634Z,2.40
2018-06-24T01:04:10.991Z,2.43
2018-06-24T01:06:16.656Z,2.50
2018-06-24T01:08:23.461Z,2.40
2018-06-24T01:10:28.491Z,2.47
2018-06-24T01:12:33.970Z,2.10
2018-06-24T01:14:39.321Z,2.37
2018-06-24T01:16:44.683Z,2.60
2018-06-24T01:18:50.600Z,2.23
2018-06-24T01:20:56.020Z,2.50
2018-06-24T01:23:01.712Z,2.40
2018-06-24T01:25:08.079Z,2.50
2018-06-24T01:27:13.559Z,2.07
2018-06-24T01:29:18.618Z,2.50
2018-06-24T01:31:23.893Z,2.33
2018-06-24T01:33:29.364Z,2.33
2018-06-24T01:35:35.498Z,2.30
2018-06-24T01:37:40.829Z,2.00
2018-06-24T01:39:47.751Z,2.23
2018-06-24T01:41:53.147Z,2.50
2018-06-24T01:43:58.504Z,2.37
2018-06-24T01:46:06.972Z,2.23
2018-06-24T01:48:12.563Z,2.70
2018-06-24T01:50:18.051Z,2.80
2018-06-24T01:52:23.600Z,2.30
2018-06-24T01:54:29.075Z,2.30
2018-06-24T01:56:34.586Z,2.60
2018-06-24T01:58:39.915Z,2.25
2018-06-24T02:00:45.431Z,2.67
2018-06-24T02:02:51.049Z,2.60
2018-06-24T02:04:56.423Z,2.60
2018-06-24T02:07:02.089Z,2.50
2018-06-24T02:09:11.866Z,2.27
2018-06-24T02:11:17.107Z,2.10
2018-06-24T02:13:23.517Z,2.42
2018-06-24T02:15:28.836Z,2.40
2018-06-24T02:17:34.260Z,2.93
2018-06-24T02:19:39.694Z,2.20
2018-06-24T02:21:45.067Z,2.40
2018-06-24T02:23:50.506Z,2.60
2018-06-24T02:25:55.970Z,2.50
2018-06-24T02:28:01.305Z,2.40
2018-06-24T02:30:06.704Z,2.53
2018-06-24T02:32:12.331Z,2.40
2018-06-24T02:34:17.793Z,2.40
2018-06-24T02:36:23.646Z,2.47
2018-06-24T02:38:29.012Z,2.60
2018-06-24T02:40:34.976Z,2.77
2018-06-24T02:42:40.227Z,2.60
2018-06-24T02:44:45.938Z,2.20
2018-06-24T02:46:51.478Z,2.37
2018-06-24T02:48:56.897Z,2.17
2018-06-24T02:51:02.290Z,2.67
2018-06-24T02:53:07.711Z,2.13
2018-06-24T02:55:13.011Z,2.30
2018-06-24T02:57:18.322Z,2.60
2018-06-24T02:59:23.326Z,2.37
2018-06-24T03:01:28.685Z,2.37
2018-06-24T03:03:34.032Z,2.47
2018-06-24T03:05:39.751Z,2.55
2018-06-24T03:07:45.333Z,2.43
2018-06-24T03:09:51.552Z,2.47
2018-06-24T03:11:57.040Z,2.57
2018-06-24T03:14:02.324Z,2.60
2018-06-24T03:16:07.778Z,2.43
2018-06-24T03:18:13.247Z,2.20
2018-06-24T03:20:18.591Z,2.47
2018-06-24T03:22:24.626Z,3.13
2018-06-24T03:24:30.042Z,2.37
2018-06-24T03:26:35.313Z,2.50
2018-06-24T03:28:41.436Z,3.63
2018-06-24T03:30:46.778Z,2.30
2018-06-24T03:32:52.444Z,2.30
2018-06-24T03:34:57.742Z,2.60
2018-06-24T03:37:03.215Z,2.50
2018-06-24T03:39:10.948Z,2.77
2018-06-24T03:41:16.272Z,2.60
2018-06-24T03:43:21.614Z,2.45
2018-06-24T03:45:27.431Z,2.40
2018-06-24T03:47:32.816Z,2.00
2018-06-24T03:49:38.365Z,2.42
2018-06-24T03:51:43.751Z,2.73
2018-06-24T03:53:49.036Z,1.90
2018-06-24T03:55:54.627Z,2.73
2018-06-24T03:57:59.988Z,2.50
2018-06-24T04:00:05.889Z,2.80
2018-06-24T04:02:11.139Z,2.40
2018-06-24T04:04:16.417Z,2.63
2018-06-24T04:06:22.260Z,2.23
2018-06-24T04:08:27.599Z,2.90
2018-06-24T04:10:32.899Z,2.98
2018-06-24T04:12:38.382Z,2.50
2018-06-24T04:14:43.679Z,2.70
2018-06-24T04:16:49.049Z,2.70
2018-06-24T04:18:54.479Z,2.83
2018-06-24T04:20:59.886Z,2.73
2018-06-24T04:23:04.933Z,3.00
2018-06-24T04:25:10.760Z,2.67
2018-06-24T04:27:16.070Z,2.60
2018-06-24T04:29:21.391Z,3.00
2018-06-24T04:31:26.791Z,2.50
2018-06-24T04:33:32.350Z,2.60
2018-06-24T04:35:37.772Z,2.60
2018-06-24T04:37:43.120Z,2.80
2018-06-24T04:39:48.496Z,2.90
2018-06-24T04:41:54.169Z,2.60
2018-06-24T04:43:59.482Z,3.03
2018-06-24T04:46:04.883Z,3.03
2018-06-24T04:48:10.230Z,2.90
2018-06-24T04:50:15.624Z,3.00
2018-06-24T04:52:21.047Z,2.80
2018-06-24T04:54:26.494Z,3.00
2018-06-24T04:56:31.862Z,3.12
2018-06-24T04:58:37.300Z,2.70
2018-06-24T05:00:42.711Z,3.10
2018-06-24T05:02:48.120Z,2.97
2018-06-24T05:04:53.487Z,3.07
2018-06-24T05:06:58.788Z,3.00
2018-06-24T05:09:05.912Z,3.00
2018-06-24T05:11:11.280Z,2.77
2018-06-24T05:13:16.694Z,3.47
2018-06-24T05:15:22.017Z,2.93
2018-06-24T05:17:27.391Z,3.40
2018-06-24T05:19:32.615Z,3.20
2018-06-24T05:21:37.900Z,3.37
2018-06-24T05:23:43.363Z,2.80
2018-06-24T05:25:48.727Z,2.87
2018-06-24T05:27:54.064Z,3.00
2018-06-24T05:29:59.442Z,3.27
2018-06-24T05:32:04.852Z,2.73
2018-06-24T05:34:10.162Z,3.37
2018-06-24T05:36:16.456Z,3.10
2018-06-24T05:38:21.803Z,3.10
2018-06-24T05:40:27.343Z,3.33
2018-06-24T05:42:32.759Z,3.50
2018-06-24T05:44:38.222Z,3.37
2018-06-24T05:46:43.662Z,2.57
2018-06-24T05:48:49.206Z,3.10
2018-06-24T05:50:54.510Z,3.10
2018-06-24T05:52:59.981Z,3.00
2018-06-24T05:55:05.578Z,3.53
2018-06-24T05:57:10.892Z,2.85
2018-06-24T05:59:16.309Z,3.00
2018-06-24T06:01:21.584Z,2.90
2018-06-24T06:03:26.671Z,3.30
2018-06-24T06:05:31.927Z,3.50
2018-06-24T06:07:37.320Z,3.20
2018-06-24T06:09:42.854Z,2.90
2018-06-24T06:11:48.229Z,3.20
2018-06-24T06:13:53.632Z,3.57
2018-06-24T06:15:59.158Z,3.47
2018-06-24T06:18:04.615Z,2.70
2018-06-24T06:20:10.582Z,3.07
2018-06-24T06:22:16.066Z,3.00
2018-06-24T06:24:21.369Z,2.73
2018-06-24T06:26:26.808Z,3.53
2018-06-24T06:28:32.285Z,3.70
2018-06-24T06:30:37.679Z,2.90
2018-06-24T06:32:43.128Z,3.12
2018-06-24T06:34:48.492Z,3.03
2018-06-24T06:36:53.893Z,3.10
2018-06-24T06:38:59.381Z,3.10
2018-06-24T06:41:04.669Z,3.00
2018-06-24T06:43:10.053Z,3.57
2018-06-24T06:45:15.497Z,3.13
2018-06-24T06:47:20.826Z,3.67
2018-06-24T06:49:26.280Z,3.43
2018-06-24T06:51:31.820Z,3.75
2018-06-24T06:53:37.158Z,3.60
2018-06-24T06:55:42.496Z,3.30
2018-06-24T06:57:47.967Z,3.77
2018-06-24T06:59:53.291Z,3.70
2018-06-24T07:01:58.723Z,3.30
2018-06-24T07:04:04.749Z,3.60
2018-06-24T07:06:10.120Z,3.70
2018-06-24T07:08:15.436Z,4.10
2018-06-24T07:10:20.757Z,3.77
2018-06-24T07:12:26.179Z,3.90
2018-06-24T07:14:31.603Z,2.98
2018-06-24T07:16:37.040Z,3.72
2018-06-24T07:18:42.351Z,3.87
2018-06-24T07:20:47.720Z,3.60
2018-06-24T07:22:53.179Z,3.83
2018-06-24T07:24:58.566Z,3.50
2018-06-24T07:27:04.118Z,3.40
2018-06-24T07:29:09.858Z,4.10
2018-06-24T07:31:15.220Z,3.30
2018-06-24T07:33:20.603Z,3.03
2018-06-24T07:35:25.954Z,3.10
2018-06-24T07:37:30.998Z,2.70
2018-06-24T07:39:36.543Z,2.90
2018-06-24T07:41:41.954Z,3.30
2018-06-24T07:43:47.508Z,2.77
2018-06-24T07:45:52.889Z,3.27
2018-06-24T07:47:58.312Z,3.40
2018-06-24T07:50:03.747Z,3.10
2018-06-24T07:52:09.216Z,2.93
2018-06-24T07:54:14.965Z,2.97
2018-06-24T07:56:20.310Z,3.13
2018-06-24T07:58:25.765Z,3.40
2018-06-24T08:00:31.384Z,3.40
2018-06-24T08:02:37.061Z,3.60
2018-06-24T08:04:42.460Z,3.20
2018-06-24T08:06:47.830Z,3.43
2018-06-24T08:08:53.291Z,3.80
2018-06-24T08:10:58.773Z,2.90
2018-06-24T08:13:04.302Z,3.07
2018-06-24T08:15:09.743Z,3.43
2018-06-24T08:17:15.086Z,3.70
2018-06-24T08:19:20.598Z,3.30
2018-06-24T08:21:25.993Z,2.67
2018-06-24T08:23:31.396Z,2.23
2018-06-24T08:25:36.853Z,2.58
2018-06-24T08:27:42.266Z,2.72
2018-06-24T08:29:47.611Z,3.77
2018-06-24T08:31:53.470Z,2.47
2018-06-24T08:33:58.784Z,2.90
2018-06-24T08:36:05.172Z,2.83
2018-06-24T08:38:10.539Z,2.50
2018-06-24T08:40:15.909Z,2.77
2018-06-24T08:42:20.988Z,2.60
2018-06-24T08:44:26.290Z,2.90
2018-06-24T08:46:31.725Z,2.80
2018-06-24T08:48:37.202Z,2.33
2018-06-24T08:50:42.584Z,2.23
2018-06-24T08:52:47.965Z,2.20
2018-06-24T08:54:53.346Z,2.40
2018-06-24T08:56:58.716Z,2.37
2018-06-24T08:59:04.271Z,2.47
2018-06-24T09:01:09.564Z,2.60
2018-06-24T09:03:15.042Z,2.53
2018-06-24T09:05:20.346Z,2.70
2018-06-24T09:07:25.730Z,2.90
2018-06-24T09:09:31.118Z,3.45
2018-06-24T09:11:36.608Z,3.25
2018-06-24T09:13:41.983Z,3.30
2018-06-24T09:15:47.391Z,3.23
2018-06-24T09:17:52.748Z,3.00
2018-06-24T09:19:58.169Z,3.40
2018-06-24T09:22:03.796Z,2.80
2018-06-24T09:24:09.320Z,3.33
2018-06-24T09:26:14.718Z,3.20
2018-06-24T09:28:20.735Z,3.60
2018-06-24T09:30:26.134Z,3.47
2018-06-24T09:32:31.502Z,3.47
2018-06-24T09:34:36.948Z,2.53
2018-06-24T09:36:42.356Z,2.70
2018-06-24T09:38:47.826Z,2.97
2018-06-24T09:40:53.251Z,3.10
2018-06-24T09:42:58.685Z,3.30
2018-06-24T09:45:04.109Z,4.17
2018-06-24T09:47:09.228Z,3.37
2018-06-24T09:49:14.534Z,3.43
2018-06-24T09:51:19.978Z,3.90
2018-06-24T09:53:25.356Z,3.17
2018-06-24T09:55:30.751Z,3.17
2018-06-24T09:57:36.688Z,3.67
2018-06-24T09:59:42.086Z,3.37
2018-06-24T10:01:47.603Z,4.00
2018-06-24T10:03:53.040Z,3.63
2018-06-24T10:05:58.422Z,4.07
2018-06-24T10:08:04.000Z,4.03
2018-06-24T10:10:09.466Z,3.50
2018-06-24T10:12:14.981Z,3.57
2018-06-24T10:14:20.679Z,3.43
2018-06-24T10:16:26.229Z,3.00
2018-06-24T10:18:31.583Z,3.20
2018-06-24T10:20:37.112Z,2.93
2018-06-24T10:22:42.451Z,2.60
2018-06-24T10:24:47.741Z,2.70
2018-06-24T10:26:53.128Z,3.23
2018-06-24T10:28:58.459Z,2.90
2018-06-24T10:31:03.567Z,3.00
2018-06-24T10:33:09.153Z,3.60
2018-06-24T10:35:14.538Z,3.10
2018-06-24T10:37:20.119Z,2.90
2018-06-24T10:39:27.028Z,2.37
2018-06-24T10:41:32.462Z,3.10
2018-06-24T10:43:37.894Z,3.20
2018-06-24T10:45:43.376Z,2.50
2018-06-24T10:47:48.800Z,2.90
2018-06-24T10:49:54.268Z,2.77
2018-06-24T10:51:59.789Z,2.93
2018-06-24T10:54:05.802Z,2.80
2018-06-24T10:56:11.254Z,2.83
2018-06-24T10:58:17.264Z,2.60
2018-06-24T11:00:23.530Z,3.57
2018-06-24T11:02:29.012Z,2.58
2018-06-24T11:04:36.516Z,2.87
2018-06-24T11:06:42.079Z,3.67
2018-06-24T11:08:47.568Z,2.60
2018-06-24T11:10:52.964Z,3.50
2018-06-24T11:12:58.346Z,2.47
2018-06-24T11:15:03.775Z,2.93
2018-06-24T11:17:09.226Z,2.77
2018-06-24T11:19:14.654Z,2.93
2018-06-24T11:21:19.755Z,2.37
2018-06-24T11:23:25.036Z,2.27
2018-06-24T11:25:30.380Z,2.65
2018-06-24T11:27:35.868Z,2.43
2018-06-24T11:29:41.183Z,2.80
2018-06-24T11:31:46.604Z,2.77
2018-06-24T11:33:52.141Z,3.43
2018-06-24T11:35:57.744Z,2.30
2018-06-24T11:38:03.305Z,2.30
2018-06-24T11:40:08.767Z,2.77
2018-06-24T11:42:14.104Z,2.80
2018-06-24T11:44:22.371Z,2.60
2018-06-24T11:46:28.307Z,2.47
2018-06-24T11:48:33.730Z,2.72
2018-06-24T11:50:39.740Z,2.30
2018-06-24T11:52:45.364Z,2.80
2018-06-24T11:57:06.848Z,2.80
2018-06-24T11:59:12.300Z,2.57
2018-06-24T12:01:17.926Z,2.60
2018-06-24T12:03:24.635Z,2.63
2018-06-24T12:05:29.980Z,2.62
2018-06-24T12:07:39.853Z,2.10
2018-06-24T12:09:45.350Z,2.47
2018-06-24T12:11:50.717Z,2.70
2018-06-24T12:13:56.086Z,2.47
2018-06-24T12:16:01.452Z,2.20
2018-06-24T12:18:07.658Z,2.60
2018-06-24T12:20:13.042Z,2.73
2018-06-24T12:22:18.392Z,2.00
2018-06-24T12:24:24.558Z,2.50
2018-06-24T12:26:30.527Z,2.52
2018-06-24T12:28:35.966Z,2.87
2018-06-24T12:30:41.570Z,2.52
2018-06-24T12:32:46.959Z,2.43
2018-06-24T12:34:52.383Z,2.87
2018-06-24T12:36:57.854Z,2.43
2018-06-24T12:39:04.391Z,3.10
2018-06-24T12:41:09.911Z,2.87
2018-06-24T12:43:15.330Z,2.73
2018-06-24T12:45:21.688Z,2.40
2018-06-24T12:47:27.075Z,2.30
2018-06-24T12:49:32.587Z,2.70
2018-06-24T12:51:38.842Z,2.60
2018-06-24T12:53:43.966Z,2.80
2018-06-24T12:55:49.311Z,2.40
2018-06-24T12:57:55.923Z,3.17
2018-06-24T13:00:01.831Z,2.80
2018-06-24T13:02:06.841Z,3.10
2018-06-24T13:04:12.285Z,3.17
2018-06-24T13:06:17.723Z,2.70
2018-06-24T13:08:23.154Z,3.43
2018-06-24T13:10:28.627Z,2.70
2018-06-24T13:12:34.041Z,3.37
2018-06-24T13:14:39.491Z,3.20
2018-06-24T13:16:44.875Z,3.43
2018-06-24T13:18:50.346Z,3.10
2018-06-24T13:20:55.727Z,3.00
2018-06-24T13:23:01.174Z,2.93
2018-06-24T13:25:06.625Z,3.13
2018-06-24T13:27:12.082Z,2.93
2018-06-24T13:29:17.793Z,2.87
2018-06-24T13:31:23.204Z,3.40
2018-06-24T13:33:28.643Z,3.50
2018-06-24T13:35:33.980Z,2.50
2018-06-24T13:37:39.075Z,3.00
2018-06-24T13:39:44.418Z,2.50
2018-06-24T13:41:49.801Z,3.10
2018-06-24T13:43:55.290Z,3.00
2018-06-24T13:46:00.781Z,3.43
2018-06-24T13:48:06.687Z,2.87
2018-06-24T13:50:12.116Z,3.17
2018-06-24T13:52:17.550Z,2.80
2018-06-24T13:54:23.067Z,3.20
2018-06-24T13:56:29.106Z,3.20
2018-06-24T13:58:34.516Z,3.08
2018-06-24T14:00:39.977Z,3.00
2018-06-24T14:02:45.459Z,2.77
2018-06-24T14:04:51.153Z,2.97
2018-06-24T14:06:56.551Z,3.07
2018-06-24T14:09:01.997Z,3.27
2018-06-24T14:11:07.598Z,2.80
2018-06-24T14:13:13.151Z,3.20
2018-06-24T14:15:18.644Z,3.13
2018-06-24T14:17:25.055Z,2.98
2018-06-24T14:19:30.199Z,2.62
2018-06-24T14:21:35.559Z,2.90
2018-06-24T14:23:41.039Z,3.13
2018-06-24T14:25:46.594Z,2.80
2018-06-24T14:27:52.091Z,3.10
2018-06-24T14:29:57.603Z,3.17
2018-06-24T14:32:03.048Z,2.83
2018-06-24T14:34:08.581Z,3.60
2018-06-24T14:36:14.030Z,3.40
2018-06-24T14:38:19.516Z,2.73
2018-06-24T14:40:24.964Z,3.30
2018-06-24T14:42:30.511Z,2.80
2018-06-24T14:44:36.036Z,3.20
2018-06-24T14:46:41.325Z,3.00
2018-06-24T14:48:46.794Z,3.00
2018-06-24T14:50:52.214Z,3.13
2018-06-24T14:52:57.610Z,2.80
2018-06-24T14:55:02.704Z,3.20
2018-06-24T14:57:08.011Z,3.00
2018-06-24T14:59:13.428Z,2.37
2018-06-24T15:01:18.884Z,2.30
2018-06-24T15:03:24.978Z,2.60
2018-06-24T15:05:30.447Z,2.77
2018-06-24T15:07:35.877Z,2.70
2018-06-24T15:09:41.295Z,2.40
2018-06-24T15:11:46.709Z,2.50
2018-06-24T15:13:52.183Z,2.67
2018-06-24T15:15:57.612Z,2.50
2018-06-24T15:18:03.040Z,2.50
2018-06-24T15:20:08.573Z,2.60
2018-06-24T15:22:13.963Z,2.20
2018-06-24T15:24:19.456Z,2.17
2018-06-24T15:26:25.100Z,2.40
2018-06-24T15:28:30.478Z,2.67
2018-06-24T15:30:35.997Z,2.50
2018-06-24T15:32:41.390Z,2.60
2018-06-24T15:34:46.877Z,2.50
2018-06-24T15:36:52.239Z,2.27
2018-06-24T15:38:57.635Z,2.30
2018-06-24T15:41:03.108Z,2.00
2018-06-24T15:43:08.178Z,2.90
2018-06-24T15:45:13.484Z,1.77
2018-06-24T15:47:18.892Z,2.20
2018-06-24T15:49:25.103Z,4.40
2018-06-24T15:51:30.561Z,2.10
2018-06-24T15:53:35.993Z,1.70
2018-06-24T15:55:41.478Z,2.17
2018-06-24T15:57:46.975Z,2.27
2018-06-24T15:59:52.372Z,2.33
2018-06-24T16:01:57.494Z,2.10
2018-06-24T16:04:02.942Z,2.30
2018-06-24T16:06:08.420Z,2.60
2018-06-24T16:08:14.546Z,2.00
2018-06-24T16:10:20.000Z,2.00
2018-06-24T16:12:25.649Z,2.30
2018-06-24T16:14:31.019Z,2.30
2018-06-24T16:16:37.153Z,2.25
2018-06-24T16:18:42.613Z,2.17
2018-06-24T16:20:48.114Z,2.40
2018-06-24T16:22:53.552Z,1.97
2018-06-24T16:24:58.973Z,2.10
2018-06-24T16:27:04.485Z,2.17
2018-06-24T16:29:09.880Z,2.20
2018-06-24T16:31:15.424Z,2.33
2018-06-24T16:33:21.064Z,2.47
2018-06-24T16:35:26.592Z,2.73
2018-06-24T16:37:31.675Z,2.37
2018-06-24T16:39:37.034Z,2.27
2018-06-24T16:41:42.516Z,2.50
2018-06-24T16:43:47.894Z,2.20
2018-06-24T16:45:54.222Z,2.63
2018-06-24T16:47:59.615Z,2.47
2018-06-24T16:50:05.186Z,2.20
2018-06-24T16:52:10.617Z,2.40
2018-06-24T16:54:15.787Z,2.83
2018-06-24T16:56:21.092Z,2.00
2018-06-24T16:58:26.614Z,2.90
2018-06-24T17:00:32.028Z,2.70
2018-06-24T17:02:37.862Z,2.37
2018-06-24T17:04:43.273Z,2.30
2018-06-24T17:06:48.465Z,2.30
2018-06-24T17:08:53.801Z,2.10
2018-06-24T17:10:59.157Z,2.30
2018-06-24T17:13:04.644Z,2.40
2018-06-24T17:15:09.993Z,2.03
2018-06-24T17:17:15.446Z,2.30
2018-06-24T17:19:20.956Z,2.00
2018-06-24T17:21:26.468Z,2.50
2018-06-24T17:23:31.954Z,3.10
2018-06-24T17:25:37.473Z,2.40
2018-06-24T17:27:42.906Z,2.50
2018-06-24T17:29:49.395Z,2.20
2018-06-24T17:31:54.862Z,2.00
2018-06-24T17:34:00.278Z,2.10
2018-06-24T17:36:05.894Z,2.70
2018-06-24T17:38:11.431Z,2.13
2018-06-24T17:40:16.890Z,2.40
2018-06-24T17:42:23.415Z,2.50
2018-06-24T17:44:28.915Z,2.30
2018-06-24T17:46:34.334Z,2.20
2018-06-24T17:48:39.750Z,2.20
2018-06-24T17:50:45.188Z,2.47
2018-06-24T17:52:50.566Z,2.70
2018-06-24T17:54:55.966Z,2.37
2018-06-24T17:57:01.441Z,2.23
2018-06-24T17:59:06.944Z,2.60
2018-06-24T18:01:12.345Z,2.30
2018-06-24T18:03:17.876Z,2.43
2018-06-24T18:05:23.373Z,2.53
2018-06-24T18:07:28.957Z,2.20
2018-06-24T18:09:34.497Z,2.10
2018-06-24T18:11:40.104Z,2.30
2018-06-24T18:13:45.596Z,3.10
2018-06-24T18:15:50.898Z,2.90
2018-06-24T18:17:56.343Z,2.90
2018-06-24T18:20:01.861Z,2.83
2018-06-24T18:22:07.435Z,2.83
2018-06-24T18:24:12.829Z,2.97
2018-06-24T18:26:18.244Z,3.33
2018-06-24T18:28:23.843Z,3.03
2018-06-24T18:30:29.280Z,3.47
2018-06-24T18:32:34.790Z,3.35
2018-06-24T18:34:40.810Z,3.52
2018-06-24T18:36:46.397Z,3.60
2018-06-24T18:38:51.902Z,4.23
2018-06-24T18:40:57.257Z,4.30
2018-06-24T18:43:02.723Z,4.03
2018-06-24T18:45:08.233Z,4.60
2018-06-24T18:47:13.828Z,4.47
2018-06-24T18:49:19.421Z,4.73
2018-06-24T18:51:25.687Z,5.20
2018-06-24T18:53:30.774Z,5.33
2018-06-24T18:55:36.736Z,5.22
2018-06-24T18:57:42.295Z,5.55
2018-06-24T18:59:47.973Z,5.50
2018-06-24T19:01:53.177Z,5.77
2018-06-24T19:03:58.551Z,5.50
2018-06-24T19:06:04.077Z,5.40
2018-06-24T19:08:09.462Z,4.97
2018-06-24T19:10:14.851Z,5.30
2018-06-24T19:12:20.362Z,4.97
2018-06-24T19:14:25.491Z,4.90
2018-06-24T19:16:31.049Z,5.80
2018-06-24T19:18:36.525Z,4.97
2018-06-24T19:20:42.050Z,5.95
2018-06-24T19:22:47.668Z,5.30
2018-06-24T19:24:53.140Z,5.10
2018-06-24T19:26:58.759Z,5.00
2018-06-24T19:29:04.139Z,5.40
2018-06-24T19:31:09.627Z,5.13
2018-06-24T19:33:15.114Z,5.00
2018-06-24T19:35:21.170Z,5.13
2018-06-24T19:37:26.742Z,5.37
2018-06-24T19:39:32.200Z,4.58
2018-06-24T19:41:37.736Z,4.60
2018-06-24T19:43:44.024Z,4.60
2018-06-24T19:45:49.668Z,4.30
2018-06-24T19:47:54.769Z,4.20
2018-06-24T19:50:00.200Z,4.40
2018-06-24T19:52:05.670Z,4.20
2018-06-24T19:54:11.327Z,4.50
2018-06-24T19:56:16.854Z,4.97
2018-06-24T19:58:22.300Z,4.60
2018-06-24T20:00:27.756Z,4.07
2018-06-24T20:02:32.816Z,4.22
2018-06-24T20:04:38.170Z,4.30
2018-06-24T20:06:43.627Z,4.20
2018-06-24T20:08:49.090Z,4.40
2018-06-24T20:10:54.461Z,4.23
2018-06-24T20:13:00.028Z,4.27
2018-06-24T20:15:05.545Z,4.00
2018-06-24T20:17:11.115Z,4.10
2018-06-24T20:19:16.596Z,3.60
2018-06-24T20:21:22.040Z,3.67
2018-06-24T20:23:27.825Z,4.20
2018-06-24T20:25:33.230Z,4.00
2018-06-24T20:27:38.855Z,4.15
2018-06-24T20:29:44.133Z,4.53
2018-06-24T20:31:49.472Z,4.53
2018-06-24T20:33:54.928Z,3.97
2018-06-24T20:36:00.397Z,3.77
2018-06-24T20:38:06.467Z,3.90
2018-06-24T20:40:11.969Z,3.90
2018-06-24T20:42:17.590Z,3.83
2018-06-24T20:44:23.908Z,4.57
2018-06-24T20:46:29.402Z,3.87
2018-06-24T20:48:34.801Z,3.17
2018-06-24T20:50:40.232Z,4.00
2018-06-24T20:52:46.016Z,4.00
2018-06-24T20:54:51.469Z,4.10
2018-06-24T20:56:56.902Z,3.40
2018-06-24T20:59:02.319Z,3.57
2018-06-24T21:01:07.921Z,3.45
2018-06-24T21:03:13.466Z,3.30
2018-06-24T21:05:18.915Z,3.23
2018-06-24T21:07:25.824Z,3.40
2018-06-24T21:09:31.234Z,3.30
2018-06-24T21:11:36.693Z,3.83
2018-06-24T21:13:42.131Z,3.52
2018-06-24T21:15:47.620Z,3.57
2018-06-24T21:17:53.083Z,3.17
2018-06-24T21:19:58.519Z,2.80
2018-06-24T21:22:03.909Z,3.43
2018-06-24T21:24:09.352Z,4.00
2018-06-24T21:26:14.790Z,3.30
2018-06-24T21:28:20.461Z,3.33
2018-06-24T21:30:26.031Z,3.20
2018-06-24T21:32:31.389Z,3.52
2018-06-24T21:34:36.776Z,3.43
2018-06-24T21:36:42.212Z,3.00
2018-06-24T21:38:47.642Z,3.30
2018-06-24T21:40:53.012Z,3.30
2018-06-24T21:42:58.351Z,3.13
2018-06-24T21:45:03.840Z,3.63
2018-06-24T21:47:09.154Z,3.13
2018-06-24T21:49:14.520Z,3.50
2018-06-24T21:51:20.364Z,3.00
2018-06-24T21:53:25.825Z,3.10
2018-06-24T21:55:31.310Z,3.10
2018-06-24T21:57:36.917Z,3.42
2018-06-24T21:59:42.248Z,3.05
2018-06-24T22:01:47.772Z,3.30
2018-06-24T22:03:53.317Z,2.77
2018-06-24T22:05:58.687Z,2.97
2018-06-24T22:08:03.997Z,3.00
2018-06-24T22:10:09.360Z,2.87
2018-06-24T22:12:14.794Z,3.30
2018-06-24T22:14:20.247Z,3.20
2018-06-24T22:16:25.879Z,3.00
2018-06-24T22:18:31.285Z,3.12
2018-06-24T22:20:36.739Z,2.75
2018-06-24T22:22:42.154Z,2.90
2018-06-24T22:24:47.606Z,3.10
2018-06-24T22:26:53.288Z,3.00
2018-06-24T22:28:58.624Z,2.63
2018-06-24T22:31:04.031Z,2.87
2018-06-24T22:33:09.500Z,2.80
2018-06-24T22:35:14.999Z,2.70
2018-06-24T22:37:20.485Z,3.03
2018-06-24T22:39:25.856Z,2.60
2018-06-24T22:41:31.236Z,3.07
2018-06-24T22:43:36.580Z,2.95
2018-06-24T22:45:42.021Z,3.10
2018-06-24T22:47:47.631Z,3.07
2018-06-24T22:49:53.049Z,3.10
2018-06-24T22:51:58.810Z,3.30
2018-06-24T22:54:04.388Z,3.40
2018-06-24T22:56:10.061Z,3.50
2018-06-24T22:58:15.122Z,3.87
2018-06-24T23:00:20.579Z,3.07
2018-06-24T23:02:26.141Z,3.10
2018-06-24T23:04:31.508Z,3.43
2018-06-24T23:06:36.866Z,3.20
2018-06-24T23:08:42.164Z,2.85
2018-06-24T23:10:47.574Z,3.20
2018-06-24T23:12:53.068Z,2.83
2018-06-24T23:14:58.501Z,3.20
2018-06-24T23:17:03.879Z,3.50
2018-06-24T23:19:09.423Z,3.60
2018-06-24T23:21:14.825Z,3.23
2018-06-24T23:23:20.232Z,3.40
2018-06-24T23:25:26.334Z,3.23
2018-06-24T23:27:31.803Z,3.10
2018-06-24T23:29:37.150Z,3.80
2018-06-24T23:31:42.555Z,2.70
2018-06-24T23:33:47.953Z,2.50
2018-06-24T23:35:53.319Z,2.60
2018-06-24T23:37:58.689Z,2.60
2018-06-24T23:40:04.388Z,2.60
2018-06-24T23:42:09.847Z,3.20
2018-06-24T23:44:15.263Z,2.70
2018-06-24T23:46:20.591Z,3.27
2018-06-24T23:48:27.269Z,3.95
2018-06-24T23:50:32.624Z,2.97
2018-06-24T23:52:38.023Z,2.65
2018-06-24T23:54:43.468Z,2.58
2018-06-24T23:56:48.843Z,3.00
2018-06-24T23:58:57.739Z,2.80
